Time;durP1;ratioP1;P1;durP2;ratioP2;P2;SDS_P1;SDS_P2;PMS_P1;PMS_P2;Temp;Humidity;BMP_temperature;BMP_pressure;BME280_temperature;BME280_humidity;BME280_pressure;Samples;Min_cycle;Max_cycle;Signal;HPM_P1;HPM_P2
2023/02/19 00:00:22;;;;;;;13.98;7.38;;;6.80;99.90;;;;;;2603474;54;20038;31
2023/02/19 00:03:01;;;;;;;11.70;6.82;;;6.80;99.90;;;;;;2603319;54;20097;31
2023/02/19 00:05:43;;;;;;;9.37;5.73;;;6.70;99.90;;;;;;2603478;54;20034;31
2023/02/19 00:08:26;;;;;;;10.40;6.28;;;6.80;99.90;;;;;;2603282;54;19935;31
2023/02/19 00:11:10;;;;;;;8.85;5.30;;;6.80;99.90;;;;;;2603401;54;20089;31
2023/02/19 00:13:58;;;;;;;9.10;6.03;;;6.80;99.90;;;;;;2603313;54;20042;31
2023/02/19 00:16:36;;;;;;;10.65;7.20;;;6.80;99.90;;;;;;2603452;54;20031;31
2023/02/19 00:19:24;;;;;;;8.60;5.57;;;6.80;99.90;;;;;;2621871;46;20140;31
2023/02/19 00:22:02;;;;;;;13.30;7.50;;;6.80;99.90;;;;;;2603493;54;20788;31
2023/02/19 00:24:41;;;;;;;11.20;7.28;;;6.80;99.90;;;;;;2603698;54;20030;31
2023/02/19 00:27:18;;;;;;;19.95;11.25;;;6.80;99.90;;;;;;2603322;54;20788;31
2023/02/19 00:29:58;;;;;;;20.70;11.82;;;6.80;99.90;;;;;;2603467;54;20052;31
2023/02/19 00:32:33;;;;;;;16.75;9.52;;;6.80;99.90;;;;;;2603262;54;20072;31
2023/02/19 00:35:17;;;;;;;14.90;8.80;;;6.80;99.90;;;;;;2603572;54;20085;31
2023/02/19 00:37:54;;;;;;;20.77;8.88;;;6.80;99.90;;;;;;2603419;54;20151;31
2023/02/19 00:40:38;;;;;;;13.50;8.23;;;6.80;99.90;;;;;;2602642;54;19942;31
2023/02/19 00:43:19;;;;;;;14.32;8.25;;;6.80;99.90;;;;;;2603314;54;20026;31
2023/02/19 00:45:58;;;;;;;11.82;6.43;;;6.80;99.90;;;;;;2603447;54;20828;31
2023/02/19 00:48:35;;;;;;;10.90;7.40;;;6.80;99.90;;;;;;2607984;46;20837;31
2023/02/19 00:51:21;;;;;;;11.63;7.45;;;6.90;99.90;;;;;;2603166;54;20086;31
2023/02/19 00:53:58;;;;;;;12.98;6.32;;;6.80;99.90;;;;;;2621891;46;20027;31
2023/02/19 00:56:38;;;;;;;9.90;5.82;;;6.80;99.90;;;;;;2603454;54;20026;31
2023/02/19 00:59:20;;;;;;;10.83;6.17;;;6.80;99.90;;;;;;2603321;54;20755;31
2023/02/19 01:02:03;;;;;;;7.95;5.00;;;6.80;99.90;;;;;;2603231;54;20089;31
2023/02/19 01:04:38;;;;;;;8.63;4.00;;;6.80;99.90;;;;;;2603642;54;20038;31
2023/02/19 01:07:20;;;;;;;8.00;5.57;;;6.80;99.90;;;;;;2603406;54;20022;31
2023/02/19 01:09:57;;;;;;;8.55;4.82;;;6.80;99.90;;;;;;2621222;46;20022;31
2023/02/19 01:12:35;;;;;;;8.60;4.82;;;6.80;99.90;;;;;;2621707;46;20069;31
2023/02/19 01:15:13;;;;;;;7.95;5.18;;;6.80;99.90;;;;;;2618636;46;20882;31
2023/02/19 01:20:25;;;;;;;8.30;5.50;;;6.70;99.90;;;;;;2602804;54;20561;31
2023/02/19 01:23:04;;;;;;;10.60;5.90;;;6.70;99.90;;;;;;2603187;54;20030;31
2023/02/19 01:25:43;;;;;;;8.13;5.30;;;6.70;99.90;;;;;;2603201;54;20837;31
2023/02/19 01:28:21;;;;;;;8.23;5.50;;;6.70;99.90;;;;;;2603064;54;20049;31
2023/02/19 01:30:59;;;;;;;9.07;5.77;;;6.70;99.90;;;;;;2603112;54;20023;31
2023/02/19 01:33:35;;;;;;;8.82;5.22;;;6.70;99.90;;;;;;2603028;54;21092;31
2023/02/19 01:36:12;;;;;;;6.68;4.00;;;6.70;99.90;;;;;;2603284;54;20034;31
2023/02/19 01:38:52;;;;;;;7.20;4.20;;;6.60;99.90;;;;;;2603411;54;20037;31
2023/02/19 01:41:27;;;;;;;4.05;3.05;;;6.70;99.90;;;;;;2602946;54;20164;31
2023/02/19 01:44:06;;;;;;;5.10;2.80;;;6.60;99.90;;;;;;2719916;39;20677;31
2023/02/19 01:46:45;;;;;;;5.05;2.72;;;6.60;99.90;;;;;;2603032;54;20026;31
2023/02/19 01:49:25;;;;;;;4.45;2.40;;;6.60;99.90;;;;;;2603113;54;20027;31
2023/02/19 01:52:01;;;;;;;3.90;2.10;;;6.50;99.90;;;;;;2602996;54;20053;31
2023/02/19 01:54:42;;;;;;;4.25;2.20;;;6.60;99.90;;;;;;2621474;47;20086;31
2023/02/19 01:57:16;;;;;;;2.88;2.05;;;6.60;99.90;;;;;;2603009;54;20119;31
2023/02/19 01:59:54;;;;;;;4.65;2.67;;;6.50;99.90;;;;;;2603161;54;20022;31
2023/02/19 02:02:31;;;;;;;5.30;2.92;;;6.50;99.90;;;;;;2621630;47;20030;31
2023/02/19 02:05:11;;;;;;;3.78;2.30;;;6.50;99.90;;;;;;2621507;47;20844;31
2023/02/19 02:10:39;;;;;;;5.80;3.08;;;6.50;99.90;;;;;;2602957;54;20009;31
2023/02/19 02:13:17;;;;;;;6.00;3.20;;;6.50;99.90;;;;;;2603128;54;20050;31
2023/02/19 02:15:57;;;;;;;4.95;3.50;;;6.50;99.90;;;;;;2602915;54;20919;31
2023/02/19 02:18:31;;;;;;;6.63;4.40;;;6.50;99.90;;;;;;2602897;54;20573;31
2023/02/19 02:21:20;;;;;;;5.10;3.70;;;6.50;99.90;;;;;;2603058;54;20785;31
2023/02/19 02:24:04;;;;;;;7.45;4.80;;;6.50;99.90;;;;;;2603007;54;20080;31
2023/02/19 02:26:48;;;;;;;6.85;4.30;;;6.50;99.90;;;;;;2602510;54;20875;31
2023/02/19 02:30:05;;;;;;;7.43;4.07;;;6.50;99.90;;;;;;2602931;54;20892;31
2023/02/19 02:32:52;;;;;;;8.45;4.90;;;6.60;99.90;;;;;;2701826;39;21581;31
2023/02/19 02:38:03;;;;;;;7.43;4.93;;;6.60;99.90;;;;;;2603591;54;25036;31
2023/02/19 02:40:39;;;;;;;9.25;5.90;;;6.60;99.90;;;;;;2622384;46;20034;31
2023/02/19 02:43:25;;;;;;;8.20;5.50;;;6.60;99.90;;;;;;2603617;54;20891;31
2023/02/19 02:46:00;;;;;;;10.13;6.32;;;6.60;99.90;;;;;;2603929;54;20026;31
2023/02/19 02:48:45;;;;;;;12.60;5.43;;;6.60;99.90;;;;;;2603706;54;20042;31
2023/02/19 02:51:25;;;;;;;6.80;4.97;;;6.60;99.90;;;;;;2603707;54;20038;31
2023/02/19 02:56:55;;;;;;;11.73;7.27;;;6.60;99.90;;;;;;2603678;54;20304;31
2023/02/19 02:59:34;;;;;;;10.95;6.65;;;6.60;99.90;;;;;;2702248;39;20405;31
2023/02/19 03:02:13;;;;;;;10.68;6.63;;;6.60;99.90;;;;;;2603773;54;20026;31
2023/02/19 03:07:43;;;;;;;10.05;5.10;;;6.60;99.90;;;;;;2603793;54;20553;31
2023/02/19 03:10:22;;;;;;;9.18;5.88;;;6.60;99.90;;;;;;2603728;54;20873;31
2023/02/19 03:21:45;;;;;;;7.40;4.82;;;6.70;99.90;;;;;;2603602;54;20897;31
2023/02/19 03:27:07;;;;;;;6.95;4.30;;;6.60;99.90;;;;;;2603619;54;20090;31
2023/02/19 03:29:50;;;;;;;6.18;3.60;;;6.60;99.90;;;;;;2603569;54;20076;31
2023/02/19 03:35:04;;;;;;;7.35;3.45;;;6.60;99.90;;;;;;2603670;54;20825;31
2023/02/19 03:37:46;;;;;;;5.07;3.35;;;6.60;99.90;;;;;;2603329;54;20768;31
2023/02/19 03:40:25;;;;;;;3.78;2.90;;;6.60;99.90;;;;;;2621941;46;20900;31
2023/02/19 03:43:05;;;;;;;6.03;2.67;;;6.60;99.90;;;;;;2603581;54;20084;31
2023/02/19 03:45:45;;;;;;;5.10;3.30;;;6.60;99.90;;;;;;2621922;46;20101;31
2023/02/19 03:48:29;;;;;;;5.55;3.83;;;6.60;99.90;;;;;;2603319;54;20030;31
2023/02/19 03:51:33;;;;;;;7.10;4.03;;;6.70;99.90;;;;;;2603615;54;20890;31
2023/02/19 03:54:08;;;;;;;5.80;3.78;;;6.70;99.90;;;;;;2603280;54;20901;31
2023/02/19 03:56:51;;;;;;;9.13;4.53;;;6.70;99.90;;;;;;2603477;54;20901;31
2023/02/19 03:59:25;;;;;;;5.75;3.97;;;6.70;99.90;;;;;;2622112;46;20140;31
2023/02/19 04:02:03;;;;;;;7.15;4.80;;;6.70;99.90;;;;;;2603298;54;20108;31
2023/02/19 04:04:38;;;;;;;11.48;6.07;;;6.70;99.90;;;;;;2603314;54;20023;31
2023/02/19 04:07:16;;;;;;;7.25;4.90;;;6.70;99.90;;;;;;2603589;54;19934;31
2023/02/19 04:09:52;;;;;;;8.30;5.15;;;6.80;99.90;;;;;;2603422;54;20038;31
2023/02/19 04:12:35;;;;;;;9.00;5.95;;;6.70;99.90;;;;;;2603509;54;20046;31
2023/02/19 04:15:12;;;;;;;10.77;7.60;;;6.70;99.90;;;;;;2612772;46;20786;31
2023/02/19 04:17:51;;;;;;;10.98;7.78;;;6.70;99.90;;;;;;2621839;46;20595;31
2023/02/19 04:20:29;;;;;;;13.07;9.27;;;6.70;99.90;;;;;;2603356;54;20068;31
2023/02/19 04:23:04;;;;;;;11.13;7.20;;;6.70;99.90;;;;;;2622085;46;20038;31
2023/02/19 04:25:43;;;;;;;14.98;10.23;;;6.70;99.90;;;;;;2603383;54;20894;31
2023/02/19 04:28:19;;;;;;;18.10;11.50;;;6.70;99.90;;;;;;2603343;54;20052;31
2023/02/19 04:31:02;;;;;;;16.30;10.75;;;6.70;99.90;;;;;;2603389;54;20760;31
2023/02/19 04:33:37;;;;;;;17.17;10.15;;;6.70;99.90;;;;;;2603224;54;20048;31
2023/02/19 04:36:14;;;;;;;15.13;10.13;;;6.70;99.90;;;;;;2602595;54;20137;31
2023/02/19 04:38:53;;;;;;;12.57;9.02;;;6.70;99.90;;;;;;2603292;54;19961;31
2023/02/19 04:41:27;;;;;;;11.35;8.45;;;6.60;99.90;;;;;;2603371;54;20081;31
2023/02/19 04:44:03;;;;;;;10.23;7.40;;;6.60;99.90;;;;;;2603524;54;20826;31
2023/02/19 04:46:42;;;;;;;12.50;7.70;;;6.60;99.90;;;;;;2621855;46;20867;31
2023/02/19 04:49:19;;;;;;;8.40;6.55;;;6.60;99.90;;;;;;2701884;39;20991;31
2023/02/19 04:51:54;;;;;;;10.32;7.28;;;6.60;99.90;;;;;;2603271;54;20086;31
2023/02/19 04:54:31;;;;;;;8.43;6.43;;;6.60;99.90;;;;;;2621283;46;20048;31
2023/02/19 04:57:10;;;;;;;9.02;6.38;;;6.60;99.90;;;;;;2603263;54;20260;31
2023/02/19 04:59:51;;;;;;;7.15;5.43;;;6.50;99.90;;;;;;2621375;46;20765;31
2023/02/19 05:02:31;;;;;;;7.53;5.33;;;6.50;99.90;;;;;;2773252;31;20595;31
2023/02/19 05:05:06;;;;;;;6.03;4.90;;;6.50;99.90;;;;;;2621661;46;21001;31
2023/02/19 05:07:44;;;;;;;7.70;5.60;;;6.50;99.90;;;;;;2603234;54;20862;31
2023/02/19 05:10:20;;;;;;;7.38;5.85;;;6.50;99.90;;;;;;2603170;54;20089;31
2023/02/19 05:12:57;;;;;;;9.65;6.85;;;6.50;99.90;;;;;;2603163;54;20034;31
2023/02/19 05:15:38;;;;;;;8.80;5.88;;;6.50;99.90;;;;;;2701708;39;21658;31
2023/02/19 05:18:19;;;;;;;10.40;5.75;;;6.50;99.90;;;;;;2603309;54;20036;31
2023/02/19 05:20:54;;;;;;;10.52;6.70;;;6.50;99.90;;;;;;2603364;54;20050;31
2023/02/19 05:23:35;;;;;;;8.30;5.47;;;6.50;99.90;;;;;;2603379;54;20136;31
2023/02/19 05:26:10;;;;;;;7.80;6.20;;;6.50;99.90;;;;;;2621617;46;20135;31
2023/02/19 05:28:50;;;;;;;7.47;5.28;;;6.50;99.90;;;;;;2603326;54;20920;31
2023/02/19 05:31:28;;;;;;;7.95;6.03;;;6.50;99.90;;;;;;2602285;54;20089;31
2023/02/19 05:34:09;;;;;;;12.20;6.68;;;6.50;99.90;;;;;;2603205;54;20031;31
2023/02/19 05:39:23;;;;;;;8.50;6.00;;;6.40;99.90;;;;;;2701739;39;21038;31
2023/02/19 05:41:59;;;;;;;9.27;5.90;;;6.40;99.90;;;;;;2603136;54;20093;31
2023/02/19 05:44:35;;;;;;;9.75;6.13;;;6.40;99.90;;;;;;2602884;54;20093;31
2023/02/19 05:47:10;;;;;;;7.80;5.55;;;6.40;99.90;;;;;;2602937;54;20027;31
2023/02/19 05:49:50;;;;;;;7.70;6.13;;;6.40;99.90;;;;;;2603183;54;20053;31
2023/02/19 05:52:28;;;;;;;8.10;5.55;;;6.40;99.90;;;;;;2603023;54;20027;31
2023/02/19 05:55:03;;;;;;;11.07;6.55;;;6.40;99.90;;;;;;2603130;54;20920;31
2023/02/19 05:57:41;;;;;;;8.15;5.90;;;6.40;99.90;;;;;;2603197;54;20084;31
2023/02/19 06:00:18;;;;;;;8.20;6.20;;;6.40;99.90;;;;;;2603297;54;20030;31
2023/02/19 06:02:53;;;;;;;8.70;4.75;;;6.40;99.90;;;;;;2602950;54;20033;31
2023/02/19 06:05:32;;;;;;;7.45;5.55;;;6.50;99.90;;;;;;2701838;39;20996;31
2023/02/19 06:08:08;;;;;;;9.27;4.72;;;6.50;99.90;;;;;;2603830;54;20108;31
2023/02/19 06:10:46;;;;;;;5.38;3.97;;;6.60;99.90;;;;;;2603815;54;21390;31
2023/02/19 06:13:26;;;;;;;7.72;3.10;;;6.80;99.90;;;;;;2622197;46;20026;31
2023/02/19 06:16:17;;;;;;;4.97;2.88;;;7.00;99.90;;;;;;2603747;54;20088;31
2023/02/19 06:18:56;;;;;;;5.88;4.20;;;7.30;99.90;;;;;;2603945;54;20053;31
2023/02/19 06:21:45;;;;;;;6.75;4.45;;;7.30;99.90;;;;;;2604142;54;20026;31
2023/02/19 06:24:22;;;;;;;7.20;5.03;;;7.20;99.90;;;;;;2622059;46;20919;31
2023/02/19 06:26:59;;;;;;;7.32;4.85;;;7.10;99.90;;;;;;2606102;46;20049;31
2023/02/19 06:29:37;;;;;;;8.35;4.80;;;7.10;99.90;;;;;;2603950;54;20022;31
2023/02/19 06:32:13;;;;;;;11.90;7.18;;;7.00;99.90;;;;;;2603007;54;20034;31
2023/02/19 06:34:51;;;;;;;7.65;5.10;;;6.90;99.90;;;;;;2603671;54;20027;31
2023/02/19 06:37:32;;;;;;;6.50;4.00;;;6.80;99.90;;;;;;2603117;54;20867;31
2023/02/19 06:40:12;;;;;;;6.18;4.75;;;6.70;99.90;;;;;;2622312;46;20027;31
2023/02/19 06:42:48;;;;;;;5.55;4.03;;;6.60;99.90;;;;;;2603816;54;20851;31
2023/02/19 06:45:28;;;;;;;5.03;3.70;;;6.50;99.90;;;;;;2702559;39;21025;31
2023/02/19 06:48:07;;;;;;;6.75;4.07;;;6.40;99.90;;;;;;2603571;54;20859;31
2023/02/19 06:50:42;;;;;;;6.45;3.72;;;6.30;99.90;;;;;;2603459;54;20049;31
2023/02/19 06:53:20;;;;;;;7.30;4.32;;;6.20;99.90;;;;;;2621870;46;20085;31
2023/02/19 06:56:04;;;;;;;6.45;3.10;;;6.10;99.90;;;;;;2603649;54;20026;31
2023/02/19 06:58:39;;;;;;;4.97;3.03;;;5.90;99.90;;;;;;2622113;46;20027;31
2023/02/19 07:01:20;;;;;;;4.03;2.67;;;5.80;99.90;;;;;;2603360;54;20085;31
2023/02/19 07:03:55;;;;;;;4.45;2.60;;;5.70;99.90;;;;;;2603679;54;20030;31
2023/02/19 07:06:34;;;;;;;4.45;2.67;;;5.60;99.90;;;;;;2603543;54;20899;31
2023/02/19 07:09:15;;;;;;;5.67;3.33;;;5.50;99.90;;;;;;2603743;54;20027;31
2023/02/19 07:11:51;;;;;;;5.88;3.53;;;5.50;99.90;;;;;;2701324;39;20748;31
2023/02/19 07:14:31;;;;;;;5.05;3.20;;;5.50;99.90;;;;;;2782269;31;20610;31
2023/02/19 07:17:11;;;;;;;7.40;3.80;;;5.40;99.90;;;;;;2621603;46;20031;31
2023/02/19 07:19:49;;;;;;;5.38;3.88;;;5.50;99.90;;;;;;2602775;54;20038;31
2023/02/19 07:22:25;;;;;;;6.00;3.57;;;5.40;99.90;;;;;;2622003;46;20093;31
2023/02/19 07:25:04;;;;;;;4.90;3.60;;;5.40;99.90;;;;;;2603595;54;20160;31
2023/02/19 07:30:41;;;;;;;;;;;5.20;99.90;;;;;;2603731;54;20867;31
2023/02/19 07:33:31;;;;;;;6.47;3.92;;;5.30;99.90;;;;;;2611475;46;20765;31
2023/02/19 07:36:21;;;;;;;4.78;3.05;;;5.30;99.90;;;;;;2621802;46;20762;31
2023/02/19 07:39:17;;;;;;;5.00;3.55;;;5.20;99.90;;;;;;2603464;54;20049;31
2023/02/19 07:42:12;;;;;;;3.35;2.33;;;5.20;99.90;;;;;;2603504;54;20898;31
2023/02/19 07:44:48;;;;;;;5.88;2.70;;;5.10;99.90;;;;;;2622047;46;20060;31
2023/02/19 07:47:26;;;;;;;3.75;2.33;;;5.00;99.90;;;;;;2622008;46;20132;31
2023/02/19 07:50:12;;;;;;;4.88;2.67;;;4.90;99.90;;;;;;2602605;54;20879;31
2023/02/19 07:52:48;;;;;;;2.55;1.60;;;4.90;99.90;;;;;;2603665;54;20873;31
2023/02/19 07:55:26;;;;;;;2.65;1.58;;;4.80;99.90;;;;;;2602658;54;20037;31
2023/02/19 07:58:07;;;;;;;5.50;2.35;;;4.80;99.90;;;;;;2603329;54;20048;31
2023/02/19 08:00:44;;;;;;;2.88;1.58;;;4.70;99.90;;;;;;2603460;54;20030;31
2023/02/19 08:03:19;;;;;;;4.35;2.28;;;4.70;99.90;;;;;;2603363;54;20937;31
2023/02/19 08:05:58;;;;;;;3.28;2.45;;;4.70;99.90;;;;;;2622156;46;20022;31
2023/02/19 08:08:42;;;;;;;4.05;2.70;;;4.60;99.90;;;;;;2701936;39;20539;31
2023/02/19 08:14:13;;;;;;;5.35;3.25;;;4.60;99.90;;;;;;2773360;31;22548;31
2023/02/19 08:16:47;;;;;;;5.17;2.70;;;4.60;99.90;;;;;;2603447;54;20032;31
2023/02/19 08:22:26;;;;;;;3.17;1.40;;;4.60;99.90;;;;;;2603325;54;20260;31
2023/02/19 08:25:12;;;;;;;2.35;1.00;;;4.50;99.90;;;;;;2603547;54;20889;31
2023/02/19 08:27:50;;;;;;;3.83;1.33;;;4.40;99.90;;;;;;2603419;54;20026;31
2023/02/19 08:30:25;;;;;;;3.92;1.23;;;4.30;99.90;;;;;;2603160;54;20376;31
2023/02/19 08:33:09;;;;;;;10.65;1.60;;;4.30;99.90;;;;;;2602478;54;20061;31
2023/02/19 08:35:48;;;;;;;6.53;2.05;;;4.30;99.90;;;;;;2621121;46;20027;31
2023/02/19 08:38:28;;;;;;;4.95;1.70;;;4.20;99.90;;;;;;2603258;54;20049;31
2023/02/19 08:41:05;;;;;;;10.90;2.72;;;4.20;99.90;;;;;;2603165;54;20050;31
2023/02/19 08:43:44;;;;;;;7.70;2.63;;;4.10;99.90;;;;;;2603306;54;20069;31
2023/02/19 08:46:21;;;;;;;9.52;2.55;;;4.10;99.90;;;;;;2603460;54;20030;31
2023/02/19 08:49:02;;;;;;;10.45;3.85;;;4.10;99.90;;;;;;2603292;54;20852;31
2023/02/19 08:51:51;;;;;;;10.02;2.85;;;4.10;99.90;;;;;;2621933;46;20026;31
2023/02/19 08:54:31;;;;;;;5.82;2.22;;;4.20;99.90;;;;;;2603420;54;20069;31
2023/02/19 08:57:19;;;;;;;6.00;2.00;;;4.20;99.90;;;;;;2603370;54;21359;31
2023/02/19 08:59:56;;;;;;;6.15;2.35;;;4.10;99.90;;;;;;2603305;54;20104;31
2023/02/19 09:02:37;;;;;;;7.45;2.00;;;4.10;99.90;;;;;;2621542;46;20065;31
2023/02/19 09:05:17;;;;;;;5.47;2.00;;;4.20;99.90;;;;;;2603036;54;20611;31
2023/02/19 09:07:53;;;;;;;6.25;2.20;;;4.20;99.90;;;;;;2602579;54;20838;31
2023/02/19 09:10:31;;;;;;;5.18;2.45;;;4.20;99.90;;;;;;2602508;54;20869;31
2023/02/19 09:13:15;;;;;;;3.05;1.60;;;4.30;99.90;;;;;;2602955;54;20662;31
2023/02/19 09:15:50;;;;;;;4.57;1.80;;;4.30;99.90;;;;;;2602920;54;20085;31
2023/02/19 09:18:27;;;;;;;4.65;1.50;;;4.40;99.90;;;;;;2621548;46;20027;31
2023/02/19 09:21:13;;;;;;;4.45;1.40;;;4.50;99.90;;;;;;2621479;46;20029;31
2023/02/19 09:23:50;;;;;;;6.05;1.80;;;4.50;99.90;;;;;;2603449;54;20030;31
2023/02/19 09:26:28;;;;;;;4.73;1.60;;;4.60;99.90;;;;;;2602346;54;20050;31
2023/02/19 09:29:04;;;;;;;5.43;2.45;;;4.50;99.90;;;;;;2602325;54;20038;31
2023/02/19 09:31:41;;;;;;;4.97;2.10;;;4.60;99.90;;;;;;2603101;54;20026;31
2023/02/19 09:34:19;;;;;;;2.95;1.65;;;4.70;99.90;;;;;;2603234;54;20033;31
2023/02/19 09:36:54;;;;;;;5.95;1.55;;;4.80;99.90;;;;;;2621043;47;20048;31
2023/02/19 09:39:32;;;;;;;2.58;1.27;;;4.80;99.90;;;;;;2603035;54;20033;31
2023/02/19 09:42:15;;;;;;;5.35;2.15;;;4.90;99.90;;;;;;2603431;54;20026;31
2023/02/19 09:44:56;;;;;;;5.63;1.55;;;4.80;99.90;;;;;;2603715;54;20061;31
2023/02/19 09:47:37;;;;;;;3.78;1.50;;;4.90;99.90;;;;;;2622433;46;20128;31
2023/02/19 09:50:19;;;;;;;3.83;1.27;;;4.90;99.90;;;;;;2604062;54;20883;31
2023/02/19 09:52:56;;;;;;;2.67;1.10;;;5.00;99.90;;;;;;2603997;54;20030;31
2023/02/19 09:55:41;;;;;;;2.67;0.70;;;5.00;99.90;;;;;;2603810;54;20884;31
2023/02/19 09:58:24;;;;;;;4.93;0.90;;;5.00;99.90;;;;;;2603754;54;20929;31
2023/02/19 10:01:02;;;;;;;5.45;1.35;;;5.10;99.90;;;;;;2603706;54;20755;31
2023/02/19 10:03:42;;;;;;;3.80;1.20;;;5.20;99.90;;;;;;2603712;54;20736;31
2023/02/19 10:06:17;;;;;;;2.75;0.90;;;5.20;99.90;;;;;;2603898;54;20027;31
2023/02/19 10:08:57;;;;;;;2.60;0.70;;;5.20;99.90;;;;;;2621772;46;20026;31
2023/02/19 10:11:42;;;;;;;5.75;1.17;;;5.30;99.90;;;;;;2621975;46;20333;31
2023/02/19 10:14:21;;;;;;;1.95;1.08;;;5.40;99.90;;;;;;2603911;54;19956;31
2023/02/19 10:16:57;;;;;;;4.22;0.75;;;5.40;99.90;;;;;;2603561;54;20739;31
2023/02/19 10:19:35;;;;;;;2.80;0.60;;;5.40;99.90;;;;;;2603612;54;20022;31
2023/02/19 10:22:11;;;;;;;2.13;0.80;;;5.30;99.90;;;;;;2603515;54;20031;31
2023/02/19 10:24:50;;;;;;;;;;;5.30;99.90;;;;;;2603860;54;20858;31
2023/02/19 10:27:29;;;;;;;3.78;0.70;;;5.30;99.90;;;;;;2611991;46;19950;31
2023/02/19 10:30:05;;;;;;;5.25;0.80;;;5.20;99.90;;;;;;2622270;46;20077;31
2023/02/19 10:32:50;;;;;;;4.95;1.05;;;5.20;99.90;;;;;;2603652;54;20093;31
2023/02/19 10:35:27;;;;;;;4.15;0.80;;;5.10;99.90;;;;;;2702266;39;20470;31
2023/02/19 10:38:08;;;;;;;4.70;1.07;;;5.10;99.90;;;;;;2621922;46;20884;31
2023/02/19 10:40:47;;;;;;;4.53;0.97;;;5.20;99.90;;;;;;2603677;54;20050;31
2023/02/19 10:43:31;;;;;;;4.55;1.30;;;5.20;99.90;;;;;;2702071;39;21289;31
2023/02/19 10:46:12;;;;;;;5.20;1.10;;;5.20;99.90;;;;;;2603572;54;20787;31
2023/02/19 10:48:57;;;;;;;4.93;1.15;;;5.20;99.90;;;;;;2603522;54;20797;31
2023/02/19 10:57:56;;;;;;;8.43;1.50;;;5.30;99.90;;;;;;2602953;54;21033;31
2023/02/19 11:00:39;;;;;;;2.78;0.82;;;5.30;99.90;;;;;;2607218;46;20131;31
2023/02/19 11:03:26;;;;;;;4.28;1.10;;;5.30;99.90;;;;;;2622198;46;20042;31
2023/02/19 11:06:02;;;;;;;6.88;1.08;;;5.20;99.90;;;;;;2603385;54;20042;31
2023/02/19 11:12:00;;;;;;;8.60;1.60;;;5.10;99.90;;;;;;2603729;54;20874;31
2023/02/19 11:17:22;;;;;;;6.85;1.40;;;5.10;99.90;;;;;;2622071;46;20811;31
2023/02/19 11:20:05;;;;;;;9.25;1.95;;;5.10;99.90;;;;;;2603602;54;20033;31
2023/02/19 11:25:24;;;;;;;5.43;2.10;;;5.00;99.90;;;;;;2603593;54;20031;31
2023/02/19 11:28:06;;;;;;;6.95;1.60;;;4.90;99.90;;;;;;2602690;54;20038;31
2023/02/19 11:30:45;;;;;;;6.40;1.33;;;5.00;99.90;;;;;;2602416;54;20135;31
2023/02/19 11:33:30;;;;;;;5.57;1.30;;;5.00;99.90;;;;;;2603361;54;20871;31
2023/02/19 11:36:25;;;;;;;8.85;1.90;;;5.00;99.90;;;;;;2621576;46;20045;31
2023/02/19 11:39:03;;;;;;;8.32;1.58;;;5.10;99.90;;;;;;2603462;54;20112;31
2023/02/19 11:41:49;;;;;;;5.63;1.42;;;5.10;99.90;;;;;;2765051;31;20082;31
2023/02/19 11:44:32;;;;;;;4.25;1.30;;;5.30;99.90;;;;;;2603451;54;20139;31
2023/02/19 11:47:23;;;;;;;5.70;1.40;;;5.50;99.90;;;;;;2603429;54;20053;31
2023/02/19 11:50:05;;;;;;;5.60;1.30;;;5.70;99.90;;;;;;2603344;54;21052;31
2023/02/19 11:52:43;;;;;;;4.95;1.95;;;5.70;99.90;;;;;;2603574;54;20912;31
2023/02/19 11:55:22;;;;;;;4.77;0.83;;;5.80;99.90;;;;;;2621853;46;20108;31
2023/02/19 11:58:11;;;;;;;3.13;0.80;;;5.70;99.90;;;;;;2603520;54;20027;31
2023/02/19 12:00:56;;;;;;;3.58;1.20;;;5.70;99.90;;;;;;2603473;54;20049;31
2023/02/19 12:03:46;;;;;;;5.90;0.95;;;5.90;99.90;;;;;;2603225;54;20030;31
2023/02/19 12:06:28;;;;;;;5.03;0.95;;;6.10;99.90;;;;;;2621566;46;20048;31
2023/02/19 12:09:20;;;;;;;2.35;0.70;;;6.20;99.90;;;;;;2603340;54;20034;31
2023/02/19 12:12:17;;;;;;;5.22;1.30;;;6.20;99.90;;;;;;2603541;54;20049;31
2023/02/19 12:17:37;;;;;;;3.40;0.90;;;6.20;99.90;;;;;;2602513;54;20033;31
2023/02/19 12:20:19;;;;;;;7.40;1.30;;;6.20;99.90;;;;;;2603208;54;20057;31
2023/02/19 12:23:09;;;;;;;3.47;1.10;;;6.20;99.90;;;;;;2603393;54;20064;31
2023/02/19 12:26:06;;;;;;;3.47;1.00;;;6.10;99.90;;;;;;2603099;54;20097;31
2023/02/19 12:28:53;;;;;;;6.35;1.15;;;5.90;99.90;;;;;;2701741;39;20457;31
2023/02/19 12:31:54;;;;;;;5.45;1.27;;;5.80;99.90;;;;;;2603249;54;20112;31
2023/02/19 12:34:48;;;;;;;4.67;1.10;;;5.70;99.90;;;;;;2621511;46;20989;31
2023/02/19 12:37:29;;;;;;;5.95;1.50;;;5.60;99.90;;;;;;2603343;54;20027;31
2023/02/19 12:40:20;;;;;;;5.90;1.20;;;5.60;99.90;;;;;;2621477;46;20859;31
2023/02/19 12:43:04;;;;;;;3.70;0.60;;;5.60;99.90;;;;;;2603244;54;20090;31
2023/02/19 12:45:46;;;;;;;7.05;1.25;;;5.60;99.90;;;;;;2603337;54;20763;31
2023/02/19 12:48:27;;;;;;;4.32;1.23;;;5.70;99.90;;;;;;2603145;54;20093;31
2023/02/19 12:51:10;;;;;;;3.63;0.93;;;5.70;99.90;;;;;;2603362;54;20875;31
2023/02/19 12:53:45;;;;;;;4.82;0.82;;;5.80;99.90;;;;;;2603136;54;20068;31
2023/02/19 12:56:29;;;;;;;4.78;0.88;;;5.80;99.90;;;;;;2603341;54;20683;31
2023/02/19 12:59:10;;;;;;;3.50;1.50;;;5.80;99.90;;;;;;2603140;54;20047;31
2023/02/19 13:01:49;;;;;;;8.00;2.80;;;5.70;99.90;;;;;;2621601;46;20022;31
2023/02/19 13:04:31;;;;;;;4.53;0.85;;;5.70;99.90;;;;;;2621852;46;20033;31
2023/02/19 13:07:13;;;;;;;7.75;1.40;;;5.70;99.90;;;;;;2621579;46;20033;31
2023/02/19 13:09:53;;;;;;;7.80;1.33;;;5.70;99.90;;;;;;2603023;54;19993;31
2023/02/19 13:12:35;;;;;;;2.93;0.57;;;5.60;99.90;;;;;;2603202;54;20026;31
2023/02/19 13:15:17;;;;;;;4.55;1.02;;;5.60;99.90;;;;;;2701644;39;21038;31
2023/02/19 13:17:58;;;;;;;2.45;0.80;;;5.50;99.90;;;;;;2603259;54;20030;31
2023/02/19 13:20:36;;;;;;;5.47;0.77;;;5.40;99.90;;;;;;2603174;54;20929;31
2023/02/19 13:26:13;;;;;;;7.88;1.20;;;5.40;99.90;;;;;;2602935;54;20184;31
2023/02/19 13:32:16;;;;;;;2.40;1.00;;;5.30;99.90;;;;;;2772892;31;21654;31
2023/02/19 13:35:02;;;;;;;5.22;1.05;;;5.30;99.90;;;;;;2603167;54;20874;31
2023/02/19 13:37:37;;;;;;;7.53;3.20;;;5.30;99.90;;;;;;2602872;54;20861;31
2023/02/19 13:40:28;;;;;;;3.30;1.17;;;5.30;99.90;;;;;;2621381;47;20026;31
2023/02/19 13:43:03;;;;;;;4.65;1.25;;;5.30;99.90;;;;;;2603132;54;20744;31
2023/02/19 13:45:42;;;;;;;4.50;1.30;;;5.30;99.90;;;;;;2603201;54;20030;31
2023/02/19 13:48:27;;;;;;;5.35;1.50;;;5.30;99.90;;;;;;2603268;54;20050;31
2023/02/19 13:51:40;;;;;;;4.03;1.23;;;5.30;99.90;;;;;;2607098;47;20129;31
2023/02/19 13:54:26;;;;;;;4.90;1.10;;;5.40;99.90;;;;;;2602906;54;20030;31
2023/02/19 13:57:27;;;;;;;3.53;0.90;;;5.30;99.90;;;;;;2603020;54;20828;31
2023/02/19 14:00:02;;;;;;;4.15;1.55;;;5.30;99.90;;;;;;2602961;54;20566;31
2023/02/19 14:02:43;;;;;;;4.55;1.40;;;5.30;99.90;;;;;;2603314;54;20867;31
2023/02/19 14:05:18;;;;;;;3.88;0.80;;;5.20;99.90;;;;;;2603054;54;20838;31
2023/02/19 14:07:55;;;;;;;4.22;0.70;;;5.20;99.90;;;;;;2621463;47;20039;31
2023/02/19 14:10:56;;;;;;;7.10;0.95;;;5.10;99.90;;;;;;2602957;54;20850;31
2023/02/19 14:14:05;;;;;;;7.10;1.00;;;5.10;99.90;;;;;;2602842;54;20026;31
2023/02/19 14:16:59;;;;;;;4.22;1.00;;;5.10;99.90;;;;;;2603166;54;20860;31
2023/02/19 14:19:56;;;;;;;4.50;0.90;;;5.10;99.90;;;;;;2602749;54;20053;31
2023/02/19 14:23:03;;;;;;;5.20;0.70;;;5.00;99.90;;;;;;2719602;39;22427;31
2023/02/19 14:25:43;;;;;;;6.60;1.03;;;5.10;99.90;;;;;;2602640;54;20026;31
2023/02/19 14:28:38;;;;;;;2.75;0.88;;;5.10;99.90;;;;;;2603486;54;20348;31
2023/02/19 14:31:27;;;;;;;3.17;0.95;;;5.10;99.90;;;;;;2603717;54;20025;31
2023/02/19 14:34:05;;;;;;;3.03;0.95;;;5.10;99.90;;;;;;2622108;46;20877;31
2023/02/19 14:36:47;;;;;;;2.90;0.90;;;5.10;99.90;;;;;;2622222;46;20033;31
2023/02/19 14:39:24;;;;;;;6.37;1.10;;;5.10;99.90;;;;;;2603569;54;20027;31
2023/02/19 14:42:00;;;;;;;3.20;1.40;;;5.10;99.90;;;;;;2603774;54;20747;31
2023/02/19 14:44:37;;;;;;;4.55;0.80;;;5.10;99.90;;;;;;2622252;46;20977;31
2023/02/19 14:47:15;;;;;;;;;;;5.10;99.90;;;;;;2604000;54;20046;31
2023/02/19 14:49:51;;;;;;;3.78;1.50;;;5.10;99.90;;;;;;2622106;46;19948;31
2023/02/19 14:52:31;;;;;;;4.80;1.63;;;5.20;99.90;;;;;;2603549;54;20027;31
2023/02/19 14:55:09;;;;;;;3.95;0.85;;;5.20;99.90;;;;;;2603856;54;20033;31
2023/02/19 14:57:45;;;;;;;4.72;0.70;;;5.20;99.90;;;;;;2603317;54;20793;31
2023/02/19 15:00:26;;;;;;;1.55;0.47;;;5.10;99.90;;;;;;2603557;54;20057;31
2023/02/19 15:05:33;;;;;;;2.15;0.60;;;5.10;99.90;;;;;;2603723;54;20885;31
2023/02/19 15:08:14;;;;;;;4.70;1.30;;;5.10;99.90;;;;;;2622233;46;20086;31
2023/02/19 15:10:49;;;;;;;4.18;1.05;;;5.00;99.90;;;;;;2603589;54;20258;31
2023/02/19 15:13:27;;;;;;;6.72;1.83;;;4.90;99.90;;;;;;2603523;54;20964;31
2023/02/19 15:16:05;;;;;;;7.50;1.65;;;4.90;99.90;;;;;;2603428;54;20022;31
2023/02/19 15:18:40;;;;;;;5.35;1.13;;;4.80;99.90;;;;;;2622155;46;20022;31
2023/02/19 15:24:46;;;;;;;3.90;1.20;;;4.70;99.90;;;;;;2603419;54;20049;31
2023/02/19 15:27:36;;;;;;;5.80;1.75;;;4.70;99.90;;;;;;2603491;54;21067;31